Time;durP1;ratioP1;P1;durP2;ratioP2;P2;SDS_P1;SDS_P2;PMS_P1;PMS_P2;Temp;Humidity;BMP_temperature;BMP_pressure;BME280_temperature;BME280_humidity;BME280_pressure;Samples;Min_cycle;Max_cycle;Signal;HPM_P1;HPM_P2
2021/01/23 00:00:23;;;;;;;;;;;0.50;99.90;;;;;;5011773;28;20037;-83
2021/01/23 00:02:48;;;;;;;35.22;14.15;;;0.50;99.90;;;;;;5007666;28;19910;-85
2021/01/23 00:05:14;;;;;;;42.33;16.25;;;0.50;99.90;;;;;;4995000;28;20030;-84
2021/01/23 00:07:40;;;;;;;45.55;17.73;;;0.50;99.90;;;;;;5012768;28;20022;-84
2021/01/23 00:10:06;;;;;;;39.85;15.82;;;0.50;99.90;;;;;;4995083;28;20564;-84
2021/01/23 00:12:32;;;;;;;38.35;14.88;;;0.50;99.90;;;;;;4993701;28;20498;-84
2021/01/23 00:14:58;;;;;;;30.38;14.98;;;0.40;99.90;;;;;;4984491;28;20033;-84
2021/01/23 00:17:23;;;;;;;49.75;16.38;;;0.40;99.90;;;;;;5013317;28;20479;-84
2021/01/23 00:19:49;;;;;;;41.30;15.15;;;0.40;99.90;;;;;;4995719;28;20029;-84
2021/01/23 00:22:15;;;;;;;44.65;16.45;;;0.30;99.90;;;;;;4995192;28;20034;-82
2021/01/23 00:24:40;;;;;;;36.75;15.90;;;0.30;99.90;;;;;;4994718;28;20026;-84
2021/01/23 00:27:06;;;;;;;42.17;14.65;;;0.30;99.90;;;;;;4995287;28;20030;-82
2021/01/23 00:29:32;;;;;;;36.63;14.25;;;0.30;99.90;;;;;;4994960;28;20026;-83
2021/01/23 00:31:58;;;;;;;28.58;14.32;;;0.30;99.90;;;;;;4994148;28;20502;-82
2021/01/23 00:34:23;;;;;;;;;;;0.30;99.90;;;;;;4995075;28;20501;-82
2021/01/23 00:36:50;;;;;;;40.97;13.57;;;0.20;99.90;;;;;;5012277;28;20218;-82
2021/01/23 00:39:16;;;;;;;38.97;14.82;;;0.10;99.90;;;;;;5006309;28;20023;-84
2021/01/23 00:41:42;;;;;;;38.05;15.38;;;0.10;99.90;;;;;;4987343;28;20029;-83
2021/01/23 00:44:07;;;;;;;31.58;13.77;;;0.10;99.90;;;;;;4978520;28;20487;-83
2021/01/23 00:46:33;;;;;;;31.25;13.63;;;0.10;99.90;;;;;;5005309;28;20057;-82
2021/01/23 00:48:59;;;;;;;30.50;14.02;;;0.20;99.90;;;;;;4997591;28;20040;-82
2021/01/23 00:51:24;;;;;;;34.67;14.70;;;0.10;99.90;;;;;;5009161;28;20033;-82
2021/01/23 00:53:50;;;;;;;31.67;14.18;;;0.10;99.90;;;;;;4987292;28;20030;-81
2021/01/23 00:56:16;;;;;;;31.15;14.43;;;0.10;99.90;;;;;;5006182;28;20025;-82
2021/01/23 00:58:42;;;;;;;33.88;13.90;;;0.10;99.90;;;;;;5000528;28;20491;-82
2021/01/23 01:01:08;;;;;;;26.92;14.05;;;0.10;99.90;;;;;;4993859;28;20129;-82
2021/01/23 01:03:34;;;;;;;40.80;16.13;;;0.10;99.90;;;;;;4989864;28;20121;-82
2021/01/23 01:06:00;;;;;;;48.63;17.42;;;0.10;99.90;;;;;;5010075;28;20029;-83
2021/01/23 01:08:26;;;;;;;40.38;18.05;;;0.10;99.90;;;;;;4993951;28;20026;-83
2021/01/23 01:10:54;;;;;;;39.97;16.25;;;0.10;99.90;;;;;;5023645;28;20056;-82
2021/01/23 01:13:22;;;;;;;44.55;15.60;;;0.10;99.90;;;;;;5003325;28;20097;-84
2021/01/23 01:15:48;;;;;;;42.00;16.63;;;0.10;99.90;;;;;;4988345;28;20030;-83
2021/01/23 01:18:14;;;;;;;;;;;0.10;99.90;;;;;;4991327;28;20542;-81
2021/01/23 01:20:40;;;;;;;38.85;15.70;;;0.00;99.90;;;;;;4992349;28;20040;-82
2021/01/23 01:23:05;;;;;;;43.45;16.98;;;0.00;99.90;;;;;;4994715;28;20029;-83
2021/01/23 01:25:31;;;;;;;44.85;17.23;;;0.00;99.90;;;;;;5013560;28;20060;-82
2021/01/23 01:27:57;;;;;;;40.17;17.90;;;0.00;99.90;;;;;;5024919;28;20018;-83
2021/01/23 01:30:23;;;;;;;39.88;15.80;;;0.00;99.90;;;;;;4994278;28;20106;-81
2021/01/23 01:32:48;;;;;;;;;;;0.00;99.90;;;;;;5003692;28;20037;-82
2021/01/23 01:35:14;;;;;;;44.20;15.68;;;0.00;99.90;;;;;;4999594;28;20325;-82
2021/01/23 01:37:40;;;;;;;57.72;18.45;;;0.00;99.90;;;;;;4981318;28;20050;-81
2021/01/23 01:40:06;;;;;;;48.42;18.98;;;0.00;99.90;;;;;;4994913;28;20041;-82
2021/01/23 01:42:33;;;;;;;58.00;18.27;;;0.00;99.90;;;;;;5031691;28;20010;-80
2021/01/23 01:44:58;;;;;;;;;;;0.00;99.90;;;;;;5018746;28;20107;-84
2021/01/23 01:47:24;;;;;;;80.60;19.92;;;0.00;99.90;;;;;;5010396;28;19905;-82
2021/01/23 01:49:54;;;;;;;75.05;23.02;;;0.00;99.90;;;;;;5010888;28;20026;-82
2021/01/23 01:52:20;;;;;;;73.78;22.42;;;0.00;99.90;;;;;;4999198;28;20026;-83
2021/01/23 01:54:45;;;;;;;55.80;19.20;;;0.00;99.90;;;;;;4995074;28;20116;-81
2021/01/23 01:57:11;;;;;;;55.78;19.33;;;0.10;99.90;;;;;;5006866;28;20112;-82
2021/01/23 01:59:37;;;;;;;61.72;19.90;;;0.10;99.90;;;;;;4993886;28;20025;-82
2021/01/23 02:02:28;;;;;;;60.08;19.50;;;0.10;99.90;;;;;;4993646;28;20034;-82
2021/01/23 02:05:30;;;;;;;72.03;21.10;;;0.20;99.90;;;;;;4994616;28;20026;-81
2021/01/23 02:08:19;;;;;;;74.32;20.88;;;0.30;99.90;;;;;;4985371;28;20515;-81
2021/01/23 02:11:24;;;;;;;59.67;19.63;;;0.30;99.90;;;;;;4984872;28;20474;-83
2021/01/23 02:14:11;;;;;;;65.10;22.05;;;0.30;99.90;;;;;;4944851;28;20034;-81
2021/01/23 02:16:43;;;;;;;65.05;21.05;;;0.30;99.90;;;;;;4999987;28;20081;-82
2021/01/23 02:19:27;;;;;;;66.15;20.63;;;0.20;99.90;;;;;;5011864;28;20037;-81
2021/01/23 02:22:10;;;;;;;66.80;20.20;;;0.20;99.90;;;;;;5011087;28;20040;-83
2021/01/23 02:24:37;;;;;;;71.28;21.13;;;0.20;99.90;;;;;;4998624;28;20489;-83
2021/01/23 02:27:14;;;;;;;49.30;18.70;;;0.20;99.90;;;;;;5010006;28;20398;-81
2021/01/23 02:30:06;;;;;;;45.40;17.02;;;0.20;99.90;;;;;;5011660;28;20026;-82
2021/01/23 02:32:34;;;;;;;47.83;17.88;;;0.30;99.90;;;;;;5001983;28;20499;-81
2021/01/23 02:35:01;;;;;;;63.70;21.48;;;0.20;99.90;;;;;;4997560;28;20026;-80
2021/01/23 02:37:29;;;;;;;67.60;20.58;;;0.20;99.90;;;;;;5019219;28;20026;-80
2021/01/23 02:39:56;;;;;;;65.78;19.00;;;0.30;99.90;;;;;;5014824;28;20026;-82
2021/01/23 02:42:22;;;;;;;52.00;19.08;;;0.30;99.90;;;;;;4994884;28;20133;-81
2021/01/23 02:44:48;;;;;;;83.53;20.40;;;0.30;99.90;;;;;;4994124;28;20105;-82
2021/01/23 02:47:14;;;;;;;65.93;23.25;;;0.30;99.90;;;;;;4992473;28;20514;-83
2021/01/23 02:49:39;;;;;;;64.43;20.27;;;0.20;99.90;;;;;;5011169;28;20033;-83
2021/01/23 02:52:47;;;;;;;66.00;22.65;;;0.20;99.90;;;;;;5010899;28;20048;-82
2021/01/23 02:55:20;;;;;;;62.60;20.17;;;0.10;99.90;;;;;;4979727;28;20042;-81
2021/01/23 02:57:48;;;;;;;57.50;19.35;;;0.10;99.90;;;;;;5001603;28;20034;-80
2021/01/23 03:00:16;;;;;;;79.32;21.20;;;0.10;99.90;;;;;;5000704;28;20022;-84
2021/01/23 03:02:47;;;;;;;65.63;19.40;;;0.00;99.90;;;;;;4991847;28;20031;-81
2021/01/23 03:05:14;;;;;;;64.85;19.55;;;0.00;99.90;;;;;;4999842;28;20046;-81
2021/01/23 03:07:40;;;;;;;70.53;20.63;;;0.00;99.90;;;;;;4978302;28;20507;-82
2021/01/23 03:10:09;;;;;;;58.53;17.85;;;0.00;99.90;;;;;;4995822;28;20084;-81
2021/01/23 03:12:35;;;;;;;62.10;19.17;;;-0.10;99.90;;;;;;4998879;28;20033;-83
2021/01/23 03:15:01;;;;;;;72.43;19.55;;;-0.10;99.90;;;;;;5000441;28;20015;-84
2021/01/23 03:17:27;;;;;;;56.25;17.83;;;-0.10;99.90;;;;;;5017271;28;20479;-81
2021/01/23 03:19:53;;;;;;;59.97;18.73;;;-0.10;99.90;;;;;;5019484;28;20018;-82
2021/01/23 03:22:19;;;;;;;67.63;18.88;;;-0.20;99.90;;;;;;4984018;28;20420;-80
2021/01/23 03:24:45;;;;;;;60.50;18.15;;;-0.10;99.90;;;;;;4989692;28;20033;-80
2021/01/23 03:27:11;;;;;;;68.47;19.25;;;-0.20;99.90;;;;;;5009060;28;20091;-81
2021/01/23 03:29:37;;;;;;;75.28;19.63;;;-0.20;99.90;;;;;;5005343;28;20030;-79
2021/01/23 03:32:03;;;;;;;71.72;20.45;;;-0.20;99.90;;;;;;4995678;28;20042;-80
2021/01/23 03:34:29;;;;;;;70.70;22.10;;;-0.10;99.90;;;;;;5011464;28;20475;-81
2021/01/23 03:36:55;;;;;;;71.13;19.85;;;-0.10;99.90;;;;;;4997290;28;20100;-81
2021/01/23 03:39:21;;;;;;;91.50;22.88;;;-0.10;99.90;;;;;;5014014;28;20153;-82
2021/01/23 03:41:46;;;;;;;94.13;21.58;;;0.00;99.90;;;;;;5009563;28;20030;-82
2021/01/23 03:44:12;;;;;;;82.47;20.83;;;-0.10;99.90;;;;;;4981495;28;20030;-81
2021/01/23 03:46:38;;;;;;;87.57;21.42;;;-0.10;99.90;;;;;;4992202;28;20032;-81
2021/01/23 03:49:04;;;;;;;80.32;21.05;;;-0.10;99.90;;;;;;4990595;28;20048;-82
2021/01/23 03:51:29;;;;;;;71.68;19.90;;;-0.10;99.90;;;;;;5003868;28;20088;-81
2021/01/23 03:53:55;;;;;;;65.32;17.88;;;-0.10;99.90;;;;;;4993265;28;20031;-82
2021/01/23 03:56:21;;;;;;;59.53;16.10;;;-0.10;99.90;;;;;;4988843;28;20033;-81
2021/01/23 03:58:47;;;;;;;75.95;19.98;;;-0.20;99.90;;;;;;4995194;28;20540;-80
2021/01/23 04:01:12;;;;;;;;;;;-0.20;99.90;;;;;;4992490;28;20018;-80
2021/01/23 04:03:38;;;;;;;70.43;19.33;;;-0.20;99.90;;;;;;4994235;28;20345;-80
2021/01/23 04:06:04;;;;;;;74.47;18.70;;;-0.20;99.90;;;;;;4994607;28;20364;-80
2021/01/23 04:08:30;;;;;;;88.07;20.73;;;-0.20;99.90;;;;;;5003706;28;20035;-82
2021/01/23 04:10:56;;;;;;;88.18;21.45;;;-0.20;99.90;;;;;;4991662;28;20690;-81
2021/01/23 04:13:22;;;;;;;89.57;20.75;;;-0.20;99.90;;;;;;5013681;28;20228;-81
2021/01/23 04:15:48;;;;;;;78.65;19.67;;;-0.20;99.90;;;;;;5012742;28;20248;-82
2021/01/23 04:18:14;;;;;;;;;;;-0.10;99.90;;;;;;4992362;28;20074;-82
2021/01/23 04:20:40;;;;;;;83.93;18.17;;;-0.10;99.90;;;;;;5000563;28;19905;-81
2021/01/23 04:23:05;;;;;;;73.07;20.20;;;-0.10;99.90;;;;;;4992493;28;20471;-82
2021/01/23 04:25:31;;;;;;;78.80;22.30;;;0.00;99.90;;;;;;4986175;28;20030;-82
2021/01/23 04:27:57;;;;;;;90.25;24.40;;;0.00;99.90;;;;;;4994646;28;20026;-82
2021/01/23 04:30:24;;;;;;;81.47;22.67;;;0.00;99.90;;;;;;4989975;28;20041;-82
2021/01/23 04:32:51;;;;;;;69.47;19.98;;;0.00;99.90;;;;;;4994877;28;20488;-80
2021/01/23 04:35:16;;;;;;;69.78;19.20;;;0.10;99.90;;;;;;4999974;28;20025;-80
2021/01/23 04:37:42;;;;;;;57.20;18.83;;;0.10;99.90;;;;;;5002469;28;20398;-80
2021/01/23 04:40:09;;;;;;;68.35;18.50;;;0.10;99.90;;;;;;5015293;28;20036;-79
2021/01/23 04:42:43;;;;;;;54.78;17.17;;;0.00;99.90;;;;;;5021363;28;20118;-79
2021/01/23 04:45:11;;;;;;;62.00;18.25;;;0.20;99.90;;;;;;5001182;28;20022;-78
2021/01/23 04:47:37;;;;;;;64.53;18.73;;;0.10;99.90;;;;;;4998475;28;20116;-79
2021/01/23 04:50:05;;;;;;;48.78;16.52;;;0.10;99.90;;;;;;5013626;28;20026;-79
2021/01/23 04:52:38;;;;;;;46.55;16.45;;;0.00;99.90;;;;;;4994957;28;20529;-81
2021/01/23 04:55:06;;;;;;;53.58;18.13;;;0.00;99.90;;;;;;4998063;28;20021;-80
2021/01/23 04:57:31;;;;;;;57.60;17.48;;;-0.10;99.90;;;;;;5024275;28;20032;-80
2021/01/23 04:59:57;;;;;;;64.38;18.30;;;-0.10;99.90;;;;;;4999115;28;20029;-81
2021/01/23 05:02:23;;;;;;;51.17;17.00;;;-0.10;99.90;;;;;;5006554;28;20033;-79
2021/01/23 05:04:49;;;;;;;;;;;-0.20;99.90;;;;;;5018140;28;20113;-82
2021/01/23 05:07:40;;;;;;;42.13;14.23;;;-0.10;99.90;;;;;;5017953;28;20386;-81
2021/01/23 05:10:16;;;;;;;47.20;15.15;;;-0.20;99.90;;;;;;5022881;28;20018;-80
2021/01/23 05:12:44;;;;;;;54.05;15.55;;;0.00;99.90;;;;;;5005839;28;20391;-79
2021/01/23 05:15:22;;;;;;;52.05;17.00;;;0.00;99.90;;;;;;4994511;28;20030;-80
2021/01/23 05:17:53;;;;;;;55.33;16.52;;;0.00;99.90;;;;;;5002744;28;20033;-81
2021/01/23 05:20:41;;;;;;;50.55;15.75;;;-0.10;99.90;;;;;;4997611;28;20046;-79
2021/01/23 05:23:27;;;;;;;48.58;14.20;;;-0.10;99.90;;;;;;4999801;28;20021;-79
2021/01/23 05:26:00;;;;;;;56.85;15.85;;;-0.10;99.90;;;;;;5023222;28;20022;-79
2021/01/23 05:28:34;;;;;;;62.17;15.68;;;-0.10;99.90;;;;;;4992735;28;20017;-81
2021/01/23 05:31:01;;;;;;;46.35;15.27;;;-0.20;99.90;;;;;;5023321;28;20081;-82
2021/01/23 05:33:32;;;;;;;53.60;15.73;;;-0.20;99.90;;;;;;5014295;28;20029;-80
2021/01/23 05:35:57;;;;;;;43.63;14.48;;;-0.20;99.90;;;;;;5013574;28;20030;-80
2021/01/23 05:38:23;;;;;;;53.35;16.42;;;-0.20;99.90;;;;;;5010733;28;20026;-81
2021/01/23 05:40:52;;;;;;;54.75;16.27;;;-0.30;99.90;;;;;;5012163;28;20068;-81
2021/01/23 05:43:46;;;;;;;71.60;17.10;;;-0.30;99.90;;;;;;4995665;28;20030;-81
2021/01/23 05:46:14;;;;;;;51.17;17.70;;;-0.30;99.90;;;;;;4996360;28;20037;-80
2021/01/23 05:48:42;;;;;;;63.28;17.52;;;-0.20;99.90;;;;;;4995568;28;20093;-81
2021/01/23 05:51:09;;;;;;;59.08;17.58;;;-0.20;99.90;;;;;;5014480;28;20061;-80
2021/01/23 05:53:35;;;;;;;53.50;16.65;;;-0.20;99.90;;;;;;5021430;28;20076;-81
2021/01/23 05:56:03;;;;;;;50.67;15.00;;;-0.20;99.90;;;;;;4998588;28;20121;-79
2021/01/23 05:58:30;;;;;;;45.72;15.35;;;-0.30;99.90;;;;;;4983698;28;20120;-80
2021/01/23 06:00:58;;;;;;;54.10;17.33;;;-0.30;99.90;;;;;;5013789;28;20018;-80
2021/01/23 06:03:26;;;;;;;60.08;17.42;;;-0.30;99.90;;;;;;4997976;28;20022;-81
2021/01/23 06:05:54;;;;;;;57.75;17.13;;;-0.30;99.90;;;;;;5016829;28;20065;-80
2021/01/23 06:08:36;;;;;;;71.75;21.40;;;-0.30;99.90;;;;;;4995785;28;20026;-82
2021/01/23 06:11:02;;;;;;;62.90;19.88;;;-0.30;99.90;;;;;;4998407;28;20094;-80
2021/01/23 06:13:37;;;;;;;49.95;16.02;;;-0.30;99.90;;;;;;4999027;28;20049;-77
2021/01/23 06:16:03;;;;;;;52.55;17.58;;;-0.30;99.90;;;;;;5000834;28;20057;-81
2021/01/23 06:18:30;;;;;;;58.05;17.48;;;-0.30;99.90;;;;;;5000923;28;20528;-79
2021/01/23 06:21:01;;;;;;;66.05;18.95;;;-0.40;99.90;;;;;;5000199;28;20069;-79
2021/01/23 06:23:47;;;;;;;65.47;19.10;;;-0.40;99.90;;;;;;4998817;28;20029;-79
2021/01/23 06:26:13;;;;;;;40.45;12.93;;;-0.40;99.90;;;;;;5015985;28;20430;-81
2021/01/23 06:28:39;;;;;;;56.03;18.67;;;-0.30;99.90;;;;;;5009080;28;20033;-80
2021/01/23 06:31:23;;;;;;;71.47;19.65;;;-0.30;99.90;;;;;;5009547;28;20475;-83
2021/01/23 06:33:49;;;;;;;75.47;17.92;;;-0.20;99.90;;;;;;4998376;28;20057;-80
2021/01/23 06:36:15;;;;;;;56.72;16.85;;;-0.10;99.90;;;;;;4998187;28;20026;-84
2021/01/23 06:39:04;;;;;;;57.22;16.95;;;0.00;99.90;;;;;;5008878;28;20033;-79
2021/01/23 06:41:37;;;;;;;49.25;16.88;;;0.10;99.90;;;;;;4997890;28;20529;-81
2021/01/23 06:44:19;;;;;;;58.63;17.95;;;0.20;99.90;;;;;;5014040;28;20030;-83
2021/01/23 06:46:48;;;;;;;63.63;19.77;;;0.30;99.90;;;;;;4999938;28;20033;-81
2021/01/23 06:49:14;;;;;;;46.50;16.63;;;0.30;99.90;;;;;;5019569;28;20048;-83
2021/01/23 06:51:41;;;;;;;64.28;18.27;;;0.40;99.90;;;;;;5021644;28;20037;-82
2021/01/23 09:05:32;;;;;;;181.43;25.05;;;2.10;99.90;;;;;;5899828;23;20346;-79
2021/01/23 09:18:20;;;;;;;116.57;26.05;;;2.10;99.90;;;;;;5837190;23;20048;-83
2021/01/23 10:40:58;;;;;;;70.97;24.00;;;2.40;99.90;;;;;;5083528;23;20039;-84
2021/01/23 10:43:24;;;;;;;90.20;27.15;;;2.40;99.90;;;;;;4940421;29;20036;-83
2021/01/23 10:45:50;;;;;;;;;;;0.70;99.90;;;;;;4938800;29;20117;-83
2021/01/23 10:48:16;;;;;;;60.53;22.70;;;2.70;99.90;;;;;;4938201;29;19907;-84
2021/01/23 10:50:43;;;;;;;42.95;18.33;;;2.80;99.90;;;;;;4940302;29;20030;-84
2021/01/23 10:53:09;;;;;;;62.95;19.48;;;2.80;99.90;;;;;;4939336;29;20058;-83
2021/01/23 10:55:35;;;;;;;;;;;2.90;99.90;;;;;;4940662;29;20405;-83
2021/01/23 10:58:01;;;;;;;49.65;19.80;;;3.20;99.90;;;;;;4945706;29;19895;-82
2021/01/23 11:00:27;;;;;;;34.28;14.57;;;3.30;99.90;;;;;;4949071;28;20032;-83
2021/01/23 11:02:53;;;;;;;;;;;3.50;98.90;;;;;;4937608;29;20036;-81
2021/01/23 11:05:19;;;;;;;28.45;12.90;;;3.30;99.20;;;;;;4947267;23;19922;-81
2021/01/23 11:07:45;;;;;;;33.70;15.05;;;3.70;98.90;;;;;;5043221;23;20044;-83
2021/01/23 11:10:12;;;;;;;32.03;13.70;;;3.70;98.50;;;;;;4973749;23;20032;-83
2021/01/23 11:12:38;;;;;;;31.30;13.98;;;3.90;98.20;;;;;;4921740;29;20091;-82
2021/01/23 11:15:05;;;;;;;24.77;12.18;;;4.00;98.70;;;;;;4921835;29;20013;-83
2021/01/23 11:17:31;;;;;;;23.75;13.40;;;4.00;97.80;;;;;;4920929;29;20104;-83
2021/01/23 11:19:57;;;;;;;14.75;6.25;;;4.10;97.90;;;;;;4927927;23;20040;-83
2021/01/23 11:22:23;;;;;;;;;;;4.30;95.80;;;;;;4937184;29;20036;-83
2021/01/23 11:24:49;;;;;;;8.65;4.28;;;3.90;93.10;;;;;;4922314;29;19920;-83
2021/01/23 11:27:15;;;;;;;9.88;2.75;;;4.20;93.10;;;;;;4921799;29;20036;-82
2021/01/23 11:34:46;;;;;;;10.13;4.10;;;4.40;91.90;;;;;;4919982;29;20041;-81
2021/01/23 11:37:12;;;;;;;;;;;4.20;91.40;;;;;;4921038;29;20037;-81
2021/01/23 11:39:41;;;;;;;6.70;2.80;;;4.40;91.10;;;;;;4921268;29;19976;-81
2021/01/23 11:42:26;;;;;;;6.72;2.90;;;4.40;91.80;;;;;;4921402;29;20049;-81
2021/01/23 11:45:02;;;;;;;4.78;2.25;;;4.40;92.30;;;;;;4936174;29;20048;-80
2021/01/23 11:47:33;;;;;;;4.22;2.35;;;4.60;90.20;;;;;;4934722;29;20051;-80
2021/01/23 11:49:59;;;;;;;9.32;2.85;;;3.80;90.20;;;;;;4929525;29;20036;-82
2021/01/23 11:52:25;;;;;;;;;;;4.70;92.20;;;;;;4922845;29;20043;-83
2021/01/23 11:54:51;;;;;;;4.70;2.20;;;4.90;90.10;;;;;;4936903;29;19908;-81
2021/01/23 11:57:19;;;;;;;9.48;2.65;;;4.90;88.90;;;;;;4921892;29;20113;-81
2021/01/23 11:59:45;;;;;;;3.55;1.80;;;5.00;85.30;;;;;;4920187;29;20097;-81
2021/01/23 12:02:11;;;;;;;9.80;1.88;;;5.00;86.00;;;;;;4919129;29;20025;-82
2021/01/23 12:04:37;;;;;;;;;;;5.10;82.20;;;;;;4920374;29;20053;-81
2021/01/23 12:07:03;;;;;;;7.90;2.25;;;6.90;84.90;;;;;;4920158;29;19907;-81
2021/01/23 12:09:29;;;;;;;13.00;2.20;;;4.70;82.40;;;;;;4918126;29;20060;-80
2021/01/23 12:11:55;;;;;;;9.88;1.98;;;5.50;86.30;;;;;;4919888;29;20016;-77
2021/01/23 12:14:22;;;;;;;3.72;1.40;;;5.40;82.90;;;;;;4920557;29;20089;-80
2021/01/23 12:16:47;;;;;;;5.15;2.22;;;5.40;80.20;;;;;;4917518;29;20020;-80
2021/01/23 12:24:24;;;;;;;14.35;3.55;;;6.40;77.80;;;;;;5594371;23;20041;-79
2021/01/23 12:26:50;;;;;;;4.78;1.55;;;6.40;77.30;;;;;;4923470;29;20063;-79
2021/01/23 12:29:15;;;;;;;6.00;2.50;;;6.80;77.00;;;;;;4919211;29;20056;-80
2021/01/23 12:31:41;;;;;;;2.53;1.42;;;7.60;72.70;;;;;;4909802;29;20486;-80
2021/01/23 12:34:07;;;;;;;3.88;1.27;;;7.80;67.80;;;;;;4924990;29;20024;-80
2021/01/23 12:36:33;;;;;;;5.65;1.40;;;6.80;69.60;;;;;;4921516;29;20025;-79
2021/01/23 12:38:58;;;;;;;4.05;1.50;;;6.80;72.20;;;;;;4930327;29;20102;-80
2021/01/23 12:41:24;;;;;;;5.65;1.55;;;7.50;71.20;;;;;;4928372;29;20434;-80
2021/01/23 12:43:50;;;;;;;6.53;1.48;;;8.30;70.50;;;;;;4922459;29;20036;-81
2021/01/23 12:46:18;;;;;;;9.60;1.88;;;8.90;66.30;;;;;;4922280;29;20020;-80
2021/01/23 12:48:44;;;;;;;2.42;1.13;;;9.30;63.90;;;;;;4925468;29;20046;-80
2021/01/23 12:51:10;;;;;;;6.15;1.52;;;9.30;62.90;;;;;;4931554;29;20115;-80
2021/01/23 12:53:36;;;;;;;5.47;1.50;;;9.10;64.00;;;;;;4932828;29;20501;-80
2021/01/23 12:56:06;;;;;;;6.72;1.38;;;8.90;64.60;;;;;;4932831;29;20052;-81
2021/01/23 12:58:34;;;;;;;4.85;1.67;;;8.60;65.30;;;;;;4936196;29;20047;-81
2021/01/23 13:00:59;;;;;;;4.93;1.55;;;8.10;67.40;;;;;;4938511;29;20028;-82
2021/01/23 13:03:25;;;;;;;8.95;2.50;;;7.80;71.20;;;;;;4933371;29;20033;-81
2021/01/23 13:05:51;;;;;;;7.57;1.50;;;7.50;70.50;;;;;;4929612;29;20047;-80
2021/01/23 13:08:17;;;;;;;5.30;1.67;;;7.10;71.60;;;;;;4942073;29;20028;-80
2021/01/23 13:10:43;;;;;;;;;;;6.90;72.60;;;;;;4931149;29;20040;-81
2021/01/23 13:13:09;;;;;;;2.58;1.40;;;6.90;71.40;;;;;;4915400;29;19943;-79
2021/01/23 13:15:34;;;;;;;2.25;1.25;;;6.90;73.00;;;;;;4941406;29;20484;-80
2021/01/23 13:18:00;;;;;;;3.90;1.40;;;6.90;73.50;;;;;;4935733;29;20036;-80
2021/01/23 13:20:26;;;;;;;8.32;1.77;;;6.80;72.80;;;;;;4935153;29;20032;-81
2021/01/23 13:22:52;;;;;;;4.40;1.50;;;6.60;73.40;;;;;;4924210;29;20056;-81
2021/01/23 13:25:18;;;;;;;4.10;1.58;;;6.60;73.20;;;;;;4927212;29;20043;-81
2021/01/23 13:27:43;;;;;;;4.18;1.38;;;6.50;74.80;;;;;;4917620;29;20081;-80
2021/01/23 13:30:10;;;;;;;3.40;1.10;;;6.50;72.20;;;;;;4940279;29;20013;-79
2021/01/23 13:32:41;;;;;;;6.00;1.65;;;6.40;69.90;;;;;;4931868;29;20036;-80
2021/01/23 13:35:07;;;;;;;3.80;2.25;;;6.40;71.80;;;;;;4939894;29;20024;-80
2021/01/23 13:37:33;;;;;;;4.00;1.40;;;6.40;72.90;;;;;;4936763;29;20028;-80
2021/01/23 13:39:59;;;;;;;5.18;1.85;;;6.50;70.80;;;;;;4939338;29;20038;-80
2021/01/23 13:42:25;;;;;;;4.40;1.52;;;6.40;72.30;;;;;;4928098;29;20131;-80
2021/01/23 13:44:50;;;;;;;6.38;1.38;;;6.30;72.20;;;;;;4914735;29;20110;-79
2021/01/23 13:47:16;;;;;;;3.63;2.28;;;6.20;71.90;;;;;;4921070;29;20486;-78
2021/01/23 13:49:42;;;;;;;3.15;1.25;;;6.20;74.80;;;;;;4922173;29;20036;-79
2021/01/23 13:52:07;;;;;;;2.50;1.00;;;6.20;71.30;;;;;;4927532;29;20052;-79
2021/01/23 13:54:33;;;;;;;2.67;1.10;;;6.20;70.50;;;;;;4919125;29;20088;-79
2021/01/23 13:57:00;;;;;;;5.90;1.73;;;6.10;70.20;;;;;;4945156;28;20044;-80
2021/01/23 13:59:26;;;;;;;5.72;1.42;;;6.00;70.40;;;;;;5092200;23;20038;-79
2021/01/23 14:01:52;;;;;;;6.68;1.70;;;5.90;71.80;;;;;;4920738;29;20056;-81
2021/01/23 14:04:17;;;;;;;;;;;5.10;71.30;;;;;;4919421;29;20089;-80
2021/01/23 14:06:44;;;;;;;9.48;2.08;;;5.90;72.60;;;;;;4924301;29;19899;-81
2021/01/23 14:09:10;;;;;;;6.57;1.63;;;5.60;72.10;;;;;;4915567;29;20039;-79
2021/01/23 14:11:35;;;;;;;3.67;1.73;;;6.00;74.40;;;;;;4930210;29;20041;-80
2021/01/23 14:14:02;;;;;;;3.40;1.80;;;6.00;73.70;;;;;;4931741;29;20144;-80
2021/01/23 14:16:27;;;;;;;3.72;1.73;;;6.10;71.90;;;;;;4928045;29;20490;-79
2021/01/23 14:18:53;;;;;;;7.43;1.40;;;6.10;70.40;;;;;;4917841;29;20134;-79
2021/01/23 14:21:19;;;;;;;4.22;0.80;;;6.10;71.90;;;;;;4918262;29;20039;-79
2021/01/23 14:23:45;;;;;;;4.15;1.00;;;6.00;68.80;;;;;;4913634;29;20039;-79
2021/01/23 14:26:10;;;;;;;5.25;1.38;;;5.90;70.10;;;;;;4923984;29;20066;-79
2021/01/23 14:28:36;;;;;;;6.63;1.50;;;5.70;70.70;;;;;;4917336;29;20096;-80
2021/01/23 14:31:02;;;;;;;7.93;1.30;;;5.70;72.80;;;;;;4926563;29;20050;-79
2021/01/23 14:33:28;;;;;;;3.60;1.33;;;5.70;72.10;;;;;;4920851;29;20048;-79
2021/01/23 14:35:54;;;;;;;3.13;1.10;;;5.70;72.50;;;;;;4916981;29;20029;-79
2021/01/23 14:38:19;;;;;;;3.75;1.10;;;5.60;72.90;;;;;;4928355;29;20033;-79
2021/01/23 14:40:45;;;;;;;4.32;1.00;;;5.50;72.40;;;;;;4919111;29;20036;-79
2021/01/23 14:43:11;;;;;;;7.15;1.20;;;5.50;70.50;;;;;;4919205;29;20055;-78
2021/01/23 14:45:37;;;;;;;3.17;1.30;;;5.60;71.10;;;;;;4920371;29;20513;-79
2021/01/23 14:48:03;;;;;;;2.67;1.20;;;5.60;72.20;;;;;;4917384;29;20500;-79
2021/01/23 14:50:29;;;;;;;;;;;5.70;70.70;;;;;;4917205;29;20031;-79
2021/01/23 14:52:54;;;;;;;6.90;1.45;;;5.60;71.30;;;;;;4912292;29;19923;-78
2021/01/23 14:55:20;;;;;;;12.40;2.15;;;5.70;70.00;;;;;;4917752;29;20021;-79
2021/01/23 14:57:46;;;;;;;3.72;1.20;;;5.90;72.10;;;;;;4920792;29;20060;-79
2021/01/23 15:00:13;;;;;;;5.07;1.42;;;6.00;71.60;;;;;;4922545;29;20028;-79
2021/01/23 15:02:39;;;;;;;3.33;1.50;;;6.10;71.80;;;;;;4916020;29;20036;-79
2021/01/23 15:05:05;;;;;;;;;;;6.10;71.60;;;;;;4917786;29;20036;-79
2021/01/23 15:07:31;;;;;;;2.40;1.20;;;6.10;72.20;;;;;;4920529;29;19907;-79
2021/01/23 15:09:58;;;;;;;4.10;1.10;;;6.10;71.20;;;;;;4921730;29;20027;-80
2021/01/23 15:12:24;;;;;;;4.93;2.05;;;6.00;72.50;;;;;;4905552;29;20048;-79
2021/01/23 15:14:50;;;;;;;4.88;1.30;;;5.90;72.60;;;;;;4922218;29;20029;-79
2021/01/23 15:17:16;;;;;;;5.57;1.23;;;5.90;73.10;;;;;;4914182;29;20072;-79
2021/01/23 15:19:42;;;;;;;5.82;1.38;;;5.80;72.30;;;;;;4935133;29;20070;-80
2021/01/23 15:22:08;;;;;;;5.03;1.38;;;5.70;72.50;;;;;;4932086;29;20086;-79
2021/01/23 15:24:34;;;;;;;2.85;1.60;;;5.70;72.40;;;;;;4932384;29;20370;-79
2021/01/23 15:27:00;;;;;;;9.50;1.60;;;5.70;72.50;;;;;;4932038;29;20062;-79
2021/01/23 15:29:26;;;;;;;3.72;1.55;;;5.70;73.10;;;;;;4917687;29;20033;-80
2021/01/23 15:31:52;;;;;;;3.80;2.03;;;5.70;71.60;;;;;;4931106;29;20024;-79
2021/01/23 15:34:17;;;;;;;;;;;5.70;70.10;;;;;;4928757;29;20091;-80
2021/01/23 15:36:43;;;;;;;5.40;1.38;;;5.60;70.10;;;;;;4928705;29;19907;-80
2021/01/23 15:39:10;;;;;;;3.22;1.00;;;5.60;70.80;;;;;;4927658;29;20035;-80
2021/01/23 15:41:36;;;;;;;3.13;1.23;;;5.60;70.30;;;;;;4917513;29;20477;-80
2021/01/23 15:44:01;;;;;;;4.90;1.23;;;5.50;71.00;;;;;;4934158;29;20056;-80
2021/01/23 15:46:27;;;;;;;2.47;1.00;;;5.50;70.60;;;;;;4905046;29;20028;-79
2021/01/23 15:48:53;;;;;;;4.70;1.52;;;5.50;70.80;;;;;;4900473;29;20124;-80
2021/01/23 15:51:19;;;;;;;;;;;5.50;71.80;;;;;;4915558;29;20149;-79
2021/01/23 15:53:45;;;;;;;5.72;1.48;;;5.40;71.50;;;;;;4901328;29;20380;-79
2021/01/23 15:56:11;;;;;;;3.97;1.60;;;5.40;72.30;;;;;;4918170;29;20032;-79
2021/01/23 15:58:36;;;;;;;6.20;1.83;;;5.40;73.20;;;;;;4917635;29;20489;-79
2021/01/23 16:01:03;;;;;;;12.48;1.63;;;5.30;73.00;;;;;;4918333;29;20575;-79
2021/01/23 16:03:29;;;;;;;9.75;1.88;;;5.30;73.50;;;;;;4900405;29;20184;-78
2021/01/23 16:05:54;;;;;;;6.18;1.70;;;5.30;72.70;;;;;;4926990;29;20051;-79
2021/01/23 16:08:21;;;;;;;5.95;1.80;;;5.30;73.10;;;;;;4916866;29;20036;-79
2021/01/23 16:10:47;;;;;;;6.07;1.45;;;5.30;73.00;;;;;;4921008;29;20035;-79
2021/01/23 16:13:13;;;;;;;6.00;1.75;;;5.40;73.10;;;;;;4919268;29;20028;-79
2021/01/23 16:15:39;;;;;;;9.38;2.03;;;5.30;74.40;;;;;;4920149;29;20054;-79
2021/01/23 16:18:09;;;;;;;5.68;1.83;;;5.40;73.70;;;;;;4913792;29;20024;-79
2021/01/23 16:20:35;;;;;;;12.35;2.38;;;5.40;74.10;;;;;;4919722;29;20028;-79
2021/01/23 16:23:05;;;;;;;;;;;5.40;73.90;;;;;;4944927;29;20028;-80
2021/01/23 16:25:31;;;;;;;12.55;3.33;;;5.50;73.90;;;;;;4928782;29;19911;-77
2021/01/23 16:27:58;;;;;;;9.98;2.40;;;5.40;73.60;;;;;;4919369;29;20614;-77
2021/01/23 16:30:24;;;;;;;6.00;2.10;;;5.40;74.40;;;;;;4934896;29;20016;-80
2021/01/23 16:32:51;;;;;;;5.55;3.03;;;5.40;74.40;;;;;;4968158;23;20043;-80
2021/01/23 16:35:16;;;;;;;;;;;5.30;75.40;;;;;;4930849;29;20546;-79
2021/01/23 16:37:43;;;;;;;8.48;2.83;;;5.30;77.10;;;;;;4932303;29;19998;-81
2021/01/23 16:40:09;;;;;;;10.07;2.60;;;5.20;76.00;;;;;;4920800;29;20040;-80
2021/01/23 16:42:35;;;;;;;16.00;3.72;;;5.20;76.20;;;;;;4923518;29;20020;-80
2021/01/23 16:45:01;;;;;;;8.95;2.70;;;5.20;76.30;;;;;;4925880;29;20028;-80